Time;durP1;ratioP1;P1;durP2;ratioP2;P2;SDS_P1;SDS_P2;PMS_P1;PMS_P2;Temp;Humidity;BMP_temperature;BMP_pressure;BME280_temperature;BME280_humidity;BME280_pressure;Samples;Min_cycle;Max_cycle;Signal;HPM_P1;HPM_P2
2021/08/01 00:00:52;;;;;;;15.32;10.80;;;15.90;93.60;;;;;;5035798;28;20032;-78
2021/08/01 00:03:18;;;;;;;16.42;11.75;;;15.80;93.70;;;;;;5052177;28;20542;-78
2021/08/01 00:05:45;;;;;;;17.83;11.85;;;15.80;93.70;;;;;;5052149;28;20104;-78
2021/08/01 00:08:11;;;;;;;16.70;12.07;;;15.80;93.80;;;;;;5053336;28;20033;-78
2021/08/01 00:10:36;;;;;;;16.65;11.75;;;15.70;93.80;;;;;;5053447;28;20040;-78
2021/08/01 00:13:02;;;;;;;18.70;12.35;;;15.70;93.80;;;;;;5052259;28;20388;-78
2021/08/01 00:15:28;;;;;;;17.55;12.20;;;15.70;93.80;;;;;;5051927;28;20079;-78
2021/08/01 00:17:54;;;;;;;19.65;12.65;;;15.70;93.90;;;;;;5051619;28;20040;-79
2021/08/01 00:20:20;;;;;;;19.52;12.63;;;15.70;93.90;;;;;;5035563;28;20439;-78
2021/08/01 00:22:45;;;;;;;17.58;11.40;;;15.60;94.00;;;;;;5052227;28;20032;-78
2021/08/01 00:25:11;;;;;;;18.25;12.40;;;15.60;94.00;;;;;;5051976;28;20492;-78
2021/08/01 00:27:37;;;;;;;17.63;12.75;;;15.60;94.30;;;;;;5051921;28;20114;-79
2021/08/01 00:30:06;;;;;;;16.02;11.98;;;15.60;94.10;;;;;;5051933;28;20067;-79
2021/08/01 00:32:31;;;;;;;18.20;12.05;;;15.60;94.10;;;;;;5053088;28;20029;-78
2021/08/01 00:34:57;;;;;;;16.13;11.95;;;15.50;94.10;;;;;;5051678;28;20485;-78
2021/08/01 00:37:23;;;;;;;16.63;11.70;;;15.50;94.20;;;;;;5053151;28;20037;-78
2021/08/01 00:39:51;;;;;;;18.25;13.15;;;15.50;94.20;;;;;;5051751;28;20435;-78
2021/08/01 00:42:17;;;;;;;16.10;11.82;;;15.50;94.20;;;;;;5035392;28;20032;-78
2021/08/01 00:44:42;;;;;;;19.85;13.07;;;15.50;94.30;;;;;;5051812;28;20035;-78
2021/08/01 00:47:10;;;;;;;17.98;12.35;;;15.40;94.30;;;;;;5035177;28;20119;-78
2021/08/01 00:49:35;;;;;;;17.40;12.32;;;15.50;94.40;;;;;;5053062;28;20036;-78
2021/08/01 00:52:03;;;;;;;18.20;12.50;;;15.50;94.40;;;;;;5052999;28;20033;-78
2021/08/01 00:54:32;;;;;;;18.08;12.48;;;15.40;94.40;;;;;;5051777;28;20045;-78
2021/08/01 00:56:58;;;;;;;17.52;12.48;;;15.40;94.40;;;;;;5052919;28;20029;-78
2021/08/01 00:59:24;;;;;;;18.67;12.15;;;15.40;94.40;;;;;;5051785;28;20064;-78
2021/08/01 01:02:15;;;;;;;16.77;11.90;;;15.40;94.50;;;;;;5051560;28;20164;-78
2021/08/01 01:04:58;;;;;;;17.98;12.55;;;15.40;94.50;;;;;;5051653;28;20491;-78
2021/08/01 01:08:10;;;;;;;17.70;11.85;;;15.30;94.50;;;;;;5052942;28;20034;-78
2021/08/01 01:10:40;;;;;;;17.10;11.50;;;15.40;94.60;;;;;;5038568;28;20051;-78
2021/08/01 01:13:21;;;;;;;16.35;10.77;;;15.30;94.50;;;;;;5051617;28;20052;-78
2021/08/01 01:15:53;;;;;;;15.15;11.38;;;15.30;94.60;;;;;;5052469;28;20047;-78
2021/08/01 01:18:23;;;;;;;15.80;11.98;;;15.30;94.60;;;;;;5051434;28;20064;-78
2021/08/01 01:21:16;;;;;;;17.15;10.55;;;15.30;94.60;;;;;;5052718;28;20017;-78
2021/08/01 01:23:44;;;;;;;17.33;11.90;;;15.20;94.60;;;;;;5051360;28;20021;-77
2021/08/01 01:26:40;;;;;;;19.88;11.55;;;15.20;94.60;;;;;;5051291;28;20086;-77
2021/08/01 01:29:23;;;;;;;17.08;11.00;;;15.20;94.70;;;;;;5051715;28;20060;-77
2021/08/01 01:31:53;;;;;;;15.85;10.50;;;15.20;94.70;;;;;;5056381;28;20385;-77
2021/08/01 01:34:40;;;;;;;16.38;11.38;;;15.20;94.70;;;;;;5056235;28;20473;-78
2021/08/01 01:37:09;;;;;;;17.30;12.05;;;15.20;94.80;;;;;;5056106;28;20028;-78
2021/08/01 01:39:38;;;;;;;17.25;11.90;;;15.20;94.80;;;;;;5054816;28;20087;-78
2021/08/01 01:42:05;;;;;;;19.25;12.90;;;15.10;94.80;;;;;;5054840;28;20048;-78
2021/08/01 01:44:33;;;;;;;18.23;11.82;;;15.20;94.90;;;;;;5054964;28;20090;-78
2021/08/01 01:46:59;;;;;;;15.63;12.20;;;15.20;94.90;;;;;;5056114;28;20070;-78
2021/08/01 01:49:25;;;;;;;18.17;12.75;;;15.20;94.90;;;;;;5056043;28;20116;-78
2021/08/01 01:51:52;;;;;;;18.45;13.35;;;15.20;94.90;;;;;;5055965;28;20029;-78
2021/08/01 01:54:18;;;;;;;19.73;13.18;;;15.20;94.90;;;;;;5055850;28;20025;-78
2021/08/01 01:56:44;;;;;;;18.23;13.18;;;15.20;94.90;;;;;;5054778;28;20025;-78
2021/08/01 01:59:12;;;;;;;18.33;13.60;;;15.20;94.90;;;;;;5054647;28;20470;-78
2021/08/01 02:01:38;;;;;;;18.15;13.15;;;15.10;94.90;;;;;;5055863;28;20152;-78
2021/08/01 02:04:05;;;;;;;18.70;13.50;;;15.10;95.00;;;;;;5055763;28;20021;-78
2021/08/01 02:06:32;;;;;;;19.45;14.70;;;15.10;95.00;;;;;;5054435;28;20043;-78
2021/08/01 02:09:03;;;;;;;20.25;14.82;;;15.10;95.00;;;;;;5054430;28;20102;-78
2021/08/01 02:11:46;;;;;;;20.58;13.73;;;15.10;95.00;;;;;;5054298;28;20526;-78
2021/08/01 02:14:41;;;;;;;22.88;14.00;;;15.10;95.10;;;;;;5055612;28;20035;-78
2021/08/01 02:17:13;;;;;;;20.60;13.95;;;15.00;95.10;;;;;;5055265;28;20094;-78
2021/08/01 02:19:43;;;;;;;18.10;13.63;;;15.00;95.40;;;;;;5054273;28;20538;-78
2021/08/01 02:22:11;;;;;;;21.92;15.40;;;15.00;95.20;;;;;;5055423;28;20021;-78
2021/08/01 02:24:37;;;;;;;21.95;15.18;;;15.00;95.20;;;;;;5055308;28;20027;-78
2021/08/01 02:27:04;;;;;;;24.08;15.95;;;15.00;95.20;;;;;;5054136;28;20151;-78
2021/08/01 02:29:31;;;;;;;18.52;15.20;;;15.00;95.20;;;;;;5054294;28;20040;-78
2021/08/01 02:31:58;;;;;;;21.23;15.02;;;14.90;95.20;;;;;;5055211;28;20027;-79
2021/08/01 02:34:24;;;;;;;20.38;14.35;;;14.90;95.20;;;;;;5053892;28;20036;-78
2021/08/01 02:36:52;;;;;;;23.77;15.80;;;15.00;95.30;;;;;;5055280;28;20021;-78
2021/08/01 02:39:20;;;;;;;22.38;15.13;;;14.90;95.40;;;;;;5054521;28;20055;-78
2021/08/01 02:41:47;;;;;;;21.40;15.93;;;14.90;95.50;;;;;;5053837;28;20017;-78
2021/08/01 02:44:20;;;;;;;27.02;16.27;;;14.90;95.60;;;;;;5053882;28;20029;-78
2021/08/01 02:46:48;;;;;;;24.10;15.67;;;15.00;95.70;;;;;;5053619;28;20107;-78
2021/08/01 02:49:19;;;;;;;22.27;15.40;;;15.00;95.70;;;;;;5054958;28;20028;-78
2021/08/01 02:51:52;;;;;;;22.00;16.40;;;15.10;95.80;;;;;;5036932;28;20025;-78
2021/08/01 02:54:19;;;;;;;22.40;15.75;;;15.10;95.80;;;;;;5054749;28;20029;-78
2021/08/01 02:56:46;;;;;;;20.55;15.80;;;15.10;95.80;;;;;;5054797;28;20491;-78
2021/08/01 02:59:14;;;;;;;20.63;15.65;;;15.10;95.90;;;;;;5054811;28;20033;-78
2021/08/01 03:01:40;;;;;;;20.17;16.48;;;15.10;95.80;;;;;;5053460;28;20013;-79
2021/08/01 03:04:06;;;;;;;22.25;15.68;;;15.10;95.90;;;;;;5053510;28;20044;-78
2021/08/01 03:06:34;;;;;;;20.80;15.55;;;15.20;96.20;;;;;;5053314;28;20029;-77
2021/08/01 03:09:04;;;;;;;22.80;16.13;;;15.20;95.90;;;;;;5054620;28;20036;-77
2021/08/01 03:11:36;;;;;;;23.13;16.50;;;15.20;95.90;;;;;;5053290;28;20033;-77
2021/08/01 03:14:03;;;;;;;22.70;17.35;;;15.20;96.00;;;;;;5054371;28;20020;-77
2021/08/01 03:16:29;;;;;;;19.52;16.15;;;15.30;96.30;;;;;;5053122;28;20056;-78
2021/08/01 03:18:55;;;;;;;21.05;16.10;;;15.20;95.90;;;;;;5053026;28;20024;-79
2021/08/01 03:21:21;;;;;;;22.15;16.88;;;15.20;95.90;;;;;;5053134;28;20023;-78
2021/08/01 03:23:47;;;;;;;22.33;17.48;;;15.30;96.10;;;;;;5053082;28;20024;-77
2021/08/01 03:26:12;;;;;;;21.05;16.17;;;15.30;96.00;;;;;;5036462;28;20025;-78
2021/08/01 03:28:38;;;;;;;22.05;15.77;;;15.30;96.00;;;;;;5054165;28;20477;-77
2021/08/01 03:31:04;;;;;;;21.48;15.63;;;15.30;96.00;;;;;;5052999;28;20473;-78
2021/08/01 03:33:29;;;;;;;20.30;15.82;;;15.30;96.00;;;;;;5052869;28;20120;-78
2021/08/01 03:35:55;;;;;;;24.05;16.48;;;15.40;96.00;;;;;;5052652;28;20438;-78
2021/08/01 03:38:20;;;;;;;19.30;15.25;;;15.40;96.00;;;;;;5052634;28;20033;-78
2021/08/01 03:40:46;;;;;;;23.08;16.02;;;15.40;96.00;;;;;;5036171;28;20041;-78
2021/08/01 03:43:12;;;;;;;22.45;17.40;;;15.40;96.00;;;;;;5053822;28;20099;-78
2021/08/01 03:45:37;;;;;;;21.73;16.10;;;15.40;96.00;;;;;;5036178;28;20477;-79
2021/08/01 03:48:03;;;;;;;20.52;16.48;;;15.40;96.10;;;;;;5053885;28;20041;-79
2021/08/01 03:50:29;;;;;;;18.73;15.45;;;15.40;96.10;;;;;;5035935;28;20485;-79
2021/08/01 03:52:54;;;;;;;21.02;16.10;;;15.40;96.10;;;;;;5051701;28;20057;-78
2021/08/01 03:55:20;;;;;;;22.63;17.17;;;15.40;96.10;;;;;;5035977;28;20033;-77
2021/08/01 03:57:45;;;;;;;22.00;16.23;;;15.40;96.10;;;;;;5053805;28;20029;-78
2021/08/01 04:00:12;;;;;;;23.73;16.58;;;15.40;96.10;;;;;;5035435;28;20032;-77
2021/08/01 04:02:38;;;;;;;21.33;15.65;;;15.40;96.10;;;;;;5070062;28;20032;-78
2021/08/01 04:05:05;;;;;;;21.25;15.07;;;15.40;96.10;;;;;;5051900;28;20420;-79
2021/08/01 04:07:30;;;;;;;19.70;14.05;;;15.40;96.10;;;;;;5034123;28;20036;-78
2021/08/01 04:09:56;;;;;;;20.60;15.95;;;15.40;96.10;;;;;;5051016;28;20033;-77
2021/08/01 04:12:22;;;;;;;23.92;17.05;;;15.40;96.10;;;;;;5053095;28;20036;-77
2021/08/01 04:14:48;;;;;;;17.88;14.95;;;15.50;96.10;;;;;;5051371;28;20473;-77
2021/08/01 04:17:18;;;;;;;19.90;14.82;;;15.50;96.10;;;;;;5052920;28;20108;-77
2021/08/01 04:19:44;;;;;;;18.63;14.48;;;15.50;96.00;;;;;;5034971;28;20485;-79
2021/08/01 04:22:10;;;;;;;20.52;15.70;;;15.50;96.10;;;;;;5051714;28;20043;-78
2021/08/01 04:24:35;;;;;;;21.50;14.95;;;15.50;96.10;;;;;;5053056;28;20115;-80
2021/08/01 04:27:01;;;;;;;20.70;14.95;;;15.50;96.10;;;;;;5035470;28;20488;-77
2021/08/01 04:29:27;;;;;;;22.27;14.70;;;15.50;96.10;;;;;;5051990;28;20061;-77
2021/08/01 04:31:52;;;;;;;20.00;15.10;;;15.50;96.10;;;;;;5053228;28;20525;-78
2021/08/01 04:34:18;;;;;;;20.55;14.80;;;15.50;96.10;;;;;;5051897;28;20111;-77
2021/08/01 04:36:44;;;;;;;17.33;12.93;;;15.50;96.10;;;;;;5053231;28;20031;-79
2021/08/01 04:39:09;;;;;;;20.50;15.05;;;15.50;96.10;;;;;;5053057;28;20029;-77
2021/08/01 04:41:35;;;;;;;22.23;14.63;;;15.50;96.10;;;;;;5053026;28;20452;-78
2021/08/01 04:44:01;;;;;;;18.90;14.10;;;15.60;96.40;;;;;;5051769;28;20029;-78
2021/08/01 04:46:26;;;;;;;19.27;13.30;;;15.50;96.10;;;;;;5053076;28;20037;-78
2021/08/01 04:48:52;;;;;;;21.52;13.23;;;15.60;96.10;;;;;;5051746;28;20099;-78
2021/08/01 04:51:18;;;;;;;17.55;13.95;;;15.60;96.10;;;;;;5035264;28;20377;-79
2021/08/01 04:53:43;;;;;;;20.10;13.98;;;15.60;96.10;;;;;;5051708;28;20040;-78
2021/08/01 04:56:10;;;;;;;21.42;14.82;;;15.60;96.20;;;;;;5053049;28;20029;-78
2021/08/01 04:58:36;;;;;;;18.25;13.07;;;15.60;96.10;;;;;;5051769;28;20028;-80
2021/08/01 05:01:08;;;;;;;23.00;13.98;;;15.70;96.20;;;;;;5051839;28;20366;-79
2021/08/01 05:03:34;;;;;;;20.63;13.60;;;15.70;96.20;;;;;;5055007;28;20025;-78
2021/08/01 05:05:59;;;;;;;20.38;15.05;;;15.70;96.10;;;;;;5055602;28;20116;-78
2021/08/01 05:08:25;;;;;;;21.77;14.52;;;15.70;96.10;;;;;;5056889;28;20025;-77
2021/08/01 05:10:50;;;;;;;24.38;15.02;;;15.70;96.10;;;;;;5056806;28;20037;-79
2021/08/01 05:13:16;;;;;;;23.70;16.02;;;15.70;96.10;;;;;;5055743;28;20473;-79
2021/08/01 05:15:41;;;;;;;21.58;14.93;;;15.80;96.20;;;;;;5056353;28;20132;-78
2021/08/01 05:18:07;;;;;;;22.70;14.00;;;15.80;96.10;;;;;;5038756;28;20574;-76
2021/08/01 05:20:33;;;;;;;23.77;15.10;;;15.80;96.10;;;;;;5056634;28;20063;-78
2021/08/01 05:22:58;;;;;;;23.10;14.32;;;15.80;96.10;;;;;;5071443;28;20037;-78
2021/08/01 05:25:24;;;;;;;26.52;17.00;;;15.80;96.10;;;;;;5058686;28;20036;-78
2021/08/01 05:27:50;;;;;;;24.75;16.42;;;15.80;96.00;;;;;;5075006;28;20059;-77
2021/08/01 05:30:15;;;;;;;23.42;16.05;;;15.90;96.00;;;;;;5075356;28;20027;-78
2021/08/01 05:32:41;;;;;;;20.38;14.68;;;15.80;96.00;;;;;;5075172;28;20479;-79
2021/08/01 05:35:07;;;;;;;26.83;17.27;;;15.90;96.00;;;;;;5041957;28;20156;-78
2021/08/01 05:37:33;;;;;;;29.33;18.25;;;15.90;95.90;;;;;;5076312;28;20473;-77
2021/08/01 05:39:58;;;;;;;24.35;17.77;;;15.90;95.90;;;;;;5075101;28;20031;-80
2021/08/01 05:42:24;;;;;;;27.65;18.52;;;15.90;95.90;;;;;;5041811;28;20025;-79
2021/08/01 05:44:50;;;;;;;27.08;19.20;;;15.90;95.90;;;;;;5075332;28;20031;-77
2021/08/01 05:47:16;;;;;;;30.63;19.05;;;16.00;95.90;;;;;;5075230;28;20036;-78
2021/08/01 05:49:41;;;;;;;31.33;21.00;;;16.00;95.80;;;;;;5075002;28;20024;-76
2021/08/01 05:52:07;;;;;;;35.95;22.90;;;16.00;95.80;;;;;;5074917;28;20032;-78
2021/08/01 05:54:33;;;;;;;31.85;19.88;;;16.00;95.80;;;;;;5075964;28;20477;-78
2021/08/01 05:56:58;;;;;;;28.20;20.15;;;16.00;95.80;;;;;;5074749;28;20035;-79
2021/08/01 05:59:24;;;;;;;30.10;19.83;;;16.00;95.80;;;;;;5075910;28;20025;-77
2021/08/01 06:01:49;;;;;;;32.58;22.33;;;16.00;95.70;;;;;;5058023;28;20104;-78
2021/08/01 06:04:15;;;;;;;35.35;22.30;;;16.10;95.70;;;;;;5074636;28;20094;-82
2021/08/01 06:06:41;;;;;;;36.30;23.45;;;16.10;95.70;;;;;;5074645;28;20062;-80
2021/08/01 06:09:06;;;;;;;41.30;24.35;;;16.10;96.00;;;;;;5074656;28;20037;-78
2021/08/01 06:11:32;;;;;;;37.35;25.10;;;16.10;95.70;;;;;;5074286;28;20051;-81
2021/08/01 06:13:57;;;;;;;48.75;29.38;;;16.10;95.70;;;;;;5075013;28;20059;-79
2021/08/01 06:16:23;;;;;;;39.90;27.17;;;16.10;95.70;;;;;;5073796;28;20053;-78
2021/08/01 06:18:48;;;;;;;44.22;27.17;;;16.10;95.70;;;;;;5074386;28;20055;-79
2021/08/01 06:21:16;;;;;;;40.20;27.92;;;16.10;95.70;;;;;;5074556;28;20020;-80
2021/08/01 06:23:44;;;;;;;37.00;26.52;;;16.10;95.70;;;;;;5074315;28;20024;-78
2021/08/01 06:26:11;;;;;;;45.80;30.23;;;16.10;95.70;;;;;;5075631;28;20017;-80
2021/08/01 06:28:37;;;;;;;35.88;26.55;;;16.10;95.80;;;;;;5075516;28;20029;-79
2021/08/01 06:31:07;;;;;;;46.80;27.70;;;16.10;95.90;;;;;;5073868;28;20075;-80
2021/08/01 06:33:34;;;;;;;43.53;27.75;;;16.10;95.80;;;;;;5073887;28;20086;-78
2021/08/01 06:36:00;;;;;;;44.15;28.40;;;16.10;95.90;;;;;;5073885;28;20028;-78
2021/08/01 06:38:26;;;;;;;44.72;27.45;;;16.00;95.90;;;;;;5075303;28;20103;-77
2021/08/01 06:40:51;;;;;;;43.78;27.13;;;16.00;95.90;;;;;;5040701;28;20484;-77
2021/08/01 06:43:17;;;;;;;47.78;29.00;;;16.00;96.00;;;;;;5057678;28;20031;-81
2021/08/01 06:45:43;;;;;;;48.88;29.50;;;16.00;96.00;;;;;;5057282;28;20562;-77
2021/08/01 06:48:09;;;;;;;43.40;27.00;;;16.00;96.00;;;;;;5074007;28;20029;-78
2021/08/01 06:50:35;;;;;;;54.25;30.33;;;15.90;96.10;;;;;;5057061;28;20496;-77
2021/08/01 06:53:01;;;;;;;44.53;27.73;;;16.00;96.20;;;;;;5075012;28;20032;-78
2021/08/01 06:55:26;;;;;;;48.03;26.08;;;16.00;96.10;;;;;;5074968;28;20086;-78
2021/08/01 06:57:52;;;;;;;48.25;25.08;;;16.00;96.20;;;;;;5073819;28;20032;-78
2021/08/01 07:00:20;;;;;;;40.08;25.42;;;16.10;96.20;;;;;;5075089;28;20024;-78
2021/08/01 07:02:52;;;;;;;45.20;25.42;;;16.10;96.10;;;;;;5071620;28;20349;-78
2021/08/01 07:05:18;;;;;;;45.30;25.08;;;16.10;96.10;;;;;;5056557;28;20116;-79
2021/08/01 07:07:44;;;;;;;44.83;27.48;;;16.20;96.10;;;;;;5057222;28;20048;-78
2021/08/01 07:10:09;;;;;;;49.55;29.85;;;16.20;96.10;;;;;;5053320;28;20033;-77
2021/08/01 07:12:38;;;;;;;46.03;26.83;;;16.20;96.00;;;;;;5052957;28;20435;-77
2021/08/01 07:15:04;;;;;;;44.13;25.77;;;16.20;96.00;;;;;;5036796;28;20453;-78
2021/08/01 07:17:30;;;;;;;43.10;25.75;;;16.10;96.00;;;;;;5036800;28;20480;-79
2021/08/01 07:19:56;;;;;;;44.92;26.75;;;16.10;96.00;;;;;;5069778;28;20044;-78
2021/08/01 07:22:21;;;;;;;45.03;25.00;;;16.10;96.00;;;;;;5069682;28;20025;-79
2021/08/01 07:24:47;;;;;;;49.83;27.60;;;16.10;96.00;;;;;;5053280;28;20040;-80
2021/08/01 07:27:12;;;;;;;50.20;27.27;;;16.10;96.10;;;;;;5054138;28;20029;-78
2021/08/01 07:29:38;;;;;;;46.40;27.90;;;16.10;96.20;;;;;;5052934;28;20033;-77
2021/08/01 07:32:04;;;;;;;48.72;28.80;;;16.00;96.10;;;;;;5069470;28;20032;-78
2021/08/01 07:34:29;;;;;;;49.58;29.15;;;16.10;96.20;;;;;;5052943;28;20035;-78
2021/08/01 07:36:57;;;;;;;52.33;29.25;;;16.10;96.20;;;;;;5054362;28;20086;-79
2021/08/01 07:39:22;;;;;;;48.33;27.95;;;16.10;96.20;;;;;;5052614;28;20025;-78
2021/08/01 07:41:48;;;;;;;49.08;29.83;;;16.10;96.20;;;;;;5053845;28;20025;-80
2021/08/01 07:44:13;;;;;;;47.25;28.67;;;16.10;96.20;;;;;;5052573;28;20032;-79
2021/08/01 07:46:39;;;;;;;50.03;27.85;;;16.20;96.20;;;;;;5053866;28;20017;-77
2021/08/01 07:49:05;;;;;;;54.25;29.85;;;16.20;96.20;;;;;;5069049;28;20048;-78
2021/08/01 07:51:30;;;;;;;45.08;26.55;;;16.20;96.20;;;;;;5053753;28;20052;-78
2021/08/01 07:53:56;;;;;;;51.75;29.98;;;16.20;96.20;;;;;;5068929;28;20029;-77
2021/08/01 07:56:21;;;;;;;51.25;29.48;;;16.20;96.10;;;;;;5052371;28;20381;-77
2021/08/01 07:58:47;;;;;;;48.63;28.08;;;16.30;96.10;;;;;;5052316;28;20024;-78
2021/08/01 08:01:15;;;;;;;45.67;26.02;;;16.30;96.10;;;;;;5053443;28;20026;-76
2021/08/01 08:03:42;;;;;;;48.88;27.30;;;16.30;96.10;;;;;;5053563;28;20029;-80
2021/08/01 08:06:08;;;;;;;44.65;27.05;;;16.40;96.10;;;;;;5052360;28;20052;-78
2021/08/01 08:08:33;;;;;;;49.70;28.55;;;16.40;96.00;;;;;;5068853;28;20040;-78
2021/08/01 08:10:59;;;;;;;59.15;32.58;;;16.40;95.90;;;;;;5052155;28;20036;-78
2021/08/01 08:13:25;;;;;;;66.60;34.67;;;16.50;95.90;;;;;;5056017;28;20036;-78
2021/08/01 08:15:50;;;;;;;59.42;32.53;;;16.50;95.70;;;;;;5057776;28;20102;-78
2021/08/01 08:18:16;;;;;;;55.42;30.00;;;16.60;95.90;;;;;;5068657;28;20013;-77
2021/08/01 08:20:42;;;;;;;50.15;28.35;;;16.60;95.90;;;;;;5051869;28;20029;-78
2021/08/01 08:23:08;;;;;;;48.65;28.00;;;16.70;95.80;;;;;;5052311;28;20462;-79
2021/08/01 08:25:33;;;;;;;55.03;31.50;;;16.80;95.80;;;;;;5052048;28;20116;-78
2021/08/01 08:27:59;;;;;;;55.42;31.58;;;16.80;95.50;;;;;;5068648;28;20078;-78
2021/08/01 08:30:25;;;;;;;60.22;32.28;;;16.80;95.40;;;;;;5051792;28;20389;-77
2021/08/01 08:32:51;;;;;;;52.97;32.13;;;16.90;95.40;;;;;;5068943;28;20071;-79
2021/08/01 08:35:17;;;;;;;56.40;32.85;;;16.90;95.30;;;;;;5068461;28;20492;-78
2021/08/01 08:37:47;;;;;;;55.33;32.10;;;16.90;95.30;;;;;;5051405;28;20566;-78
2021/08/01 08:40:13;;;;;;;58.75;32.67;;;16.90;95.30;;;;;;5068704;28;20017;-77
2021/08/01 08:42:41;;;;;;;49.38;30.88;;;17.00;95.10;;;;;;5053103;28;20499;-77
2021/08/01 08:45:07;;;;;;;53.38;30.98;;;17.00;95.00;;;;;;5068506;28;20031;-79
2021/08/01 08:47:36;;;;;;;59.33;31.88;;;17.00;95.00;;;;;;5051813;28;20460;-77
2021/08/01 08:50:04;;;;;;;56.13;32.72;;;17.10;94.90;;;;;;5053073;28;20056;-78
2021/08/01 08:52:32;;;;;;;53.70;31.33;;;17.10;94.70;;;;;;5052895;28;20025;-78
2021/08/01 08:55:00;;;;;;;53.78;32.03;;;17.10;94.70;;;;;;5051707;28;20025;-78
2021/08/01 08:57:32;;;;;;;52.22;30.60;;;17.10;94.60;;;;;;5052980;28;20024;-78
2021/08/01 09:00:06;;;;;;;45.25;28.17;;;17.20;94.70;;;;;;5052791;28;20157;-79
2021/08/01 09:02:34;;;;;;;49.08;28.73;;;17.20;94.70;;;;;;5052835;28;20013;-78
2021/08/01 09:05:00;;;;;;;51.40;30.42;;;17.30;94.70;;;;;;5051622;28;20025;-79
2021/08/01 09:07:25;;;;;;;45.60;27.20;;;17.40;94.60;;;;;;5052639;28;20036;-77
2021/08/01 09:09:51;;;;;;;47.13;27.58;;;17.40;94.50;;;;;;5051482;28;20040;-79
2021/08/01 09:12:17;;;;;;;47.47;29.02;;;17.50;94.40;;;;;;5051407;28;20397;-79
2021/08/01 09:14:44;;;;;;;52.50;30.05;;;17.60;94.20;;;;;;5052738;28;20041;-78
2021/08/01 09:17:10;;;;;;;46.28;29.90;;;17.60;94.00;;;;;;5051716;28;20103;-79
2021/08/01 09:19:39;;;;;;;46.50;28.75;;;17.60;93.80;;;;;;5053136;28;20425;-79
2021/08/01 09:22:25;;;;;;;47.20;28.63;;;17.70;93.90;;;;;;5051601;28;20551;-78
2021/08/01 09:24:52;;;;;;;43.63;27.15;;;17.80;93.80;;;;;;5051913;28;20420;-79
2021/08/01 09:27:32;;;;;;;49.67;28.45;;;17.80;93.70;;;;;;5052516;28;20385;-75
2021/08/01 09:29:58;;;;;;;46.15;28.23;;;17.80;93.50;;;;;;5051219;28;20095;-75
2021/08/01 09:32:25;;;;;;;43.05;26.48;;;17.80;93.50;;;;;;5034493;28;20029;-76
2021/08/01 09:34:51;;;;;;;39.13;26.35;;;17.90;93.60;;;;;;5037363;28;20396;-74
2021/08/01 09:37:34;;;;;;;44.08;25.95;;;18.10;93.70;;;;;;5071230;28;20104;-76
2021/08/01 09:40:08;;;;;;;43.53;26.23;;;18.20;93.40;;;;;;5054578;28;20032;-75
2021/08/01 09:42:47;;;;;;;46.63;27.52;;;18.30;93.20;;;;;;5072498;28;20504;-76
2021/08/01 09:45:17;;;;;;;40.08;26.10;;;18.30;93.30;;;;;;5072669;28;20029;-75
2021/08/01 09:47:44;;;;;;;39.22;24.83;;;18.50;93.10;;;;;;5071612;28;20028;-76
2021/08/01 09:50:11;;;;;;;39.00;25.35;;;18.70;93.00;;;;;;5073831;28;20043;-76
2021/08/01 09:52:37;;;;;;;35.50;22.30;;;18.90;92.60;;;;;;5041947;28;20074;-75
2021/08/01 09:55:03;;;;;;;39.85;24.25;;;19.00;92.40;;;;;;5074867;28;20032;-76
2021/08/01 09:57:28;;;;;;;32.00;22.17;;;19.10;92.20;;;;;;5058153;28;20158;-76
2021/08/01 10:00:09;;;;;;;41.55;23.63;;;19.30;92.30;;;;;;5074549;28;20107;-76
2021/08/01 10:02:37;;;;;;;33.97;23.55;;;19.60;91.70;;;;;;5069641;28;20380;-79
2021/08/01 10:05:18;;;;;;;33.10;22.25;;;19.90;91.50;;;;;;5048688;28;20036;-78
2021/08/01 10:07:47;;;;;;;31.90;22.30;;;20.10;90.90;;;;;;5074098;28;20032;-78
2021/08/01 10:10:23;;;;;;;32.25;21.83;;;20.20;90.30;;;;;;5075631;28;21259;-79
2021/08/01 10:12:55;;;;;;;34.92;21.48;;;20.30;90.20;;;;;;5075533;28;20024;-77
2021/08/01 10:15:21;;;;;;;29.63;20.73;;;20.60;90.20;;;;;;5074234;28;20041;-78
2021/08/01 10:17:46;;;;;;;34.63;22.17;;;20.80;89.70;;;;;;5036869;28;20029;-79
2021/08/01 10:20:12;;;;;;;27.05;19.00;;;21.00;88.50;;;;;;5074235;28;20135;-81
2021/08/01 10:22:41;;;;;;;30.20;21.15;;;21.10;87.80;;;;;;5075382;28;20036;-78
2021/08/01 10:25:13;;;;;;;30.75;20.60;;;21.10;85.80;;;;;;5075773;28;20341;-79
2021/08/01 10:27:50;;;;;;;27.60;19.05;;;21.20;85.80;;;;;;5075522;28;20029;-79
2021/08/01 10:30:21;;;;;;;27.67;19.08;;;21.40;85.70;;;;;;5075564;28;20052;-78
2021/08/01 10:32:52;;;;;;;29.42;18.73;;;21.60;84.40;;;;;;5075755;28;20025;-75
2021/08/01 10:35:21;;;;;;;25.42;17.60;;;21.60;83.70;;;;;;5074679;28;20036;-75
2021/08/01 10:37:58;;;;;;;27.95;18.17;;;21.70;83.10;;;;;;5075843;28;20028;-78
2021/08/01 10:40:26;;;;;;;28.92;19.67;;;21.60;81.70;;;;;;5074075;28;20013;-78
2021/08/01 10:42:54;;;;;;;29.65;20.15;;;21.50;81.20;;;;;;5073906;28;20013;-79
2021/08/01 10:45:20;;;;;;;31.10;20.52;;;21.20;81.30;;;;;;5075501;28;20029;-79
2021/08/01 10:47:48;;;;;;;31.48;21.50;;;21.00;82.80;;;;;;5072209;28;20115;-79
2021/08/01 10:50:21;;;;;;;29.98;20.95;;;20.70;84.20;;;;;;5064514;28;20033;-79
2021/08/01 10:52:47;;;;;;;34.28;22.50;;;20.40;85.60;;;;;;5074957;28;20024;-78
2021/08/01 10:55:23;;;;;;;31.77;21.92;;;20.20;87.00;;;;;;5073314;28;20016;-78
2021/08/01 10:58:08;;;;;;;36.80;25.23;;;19.90;87.80;;;;;;5073957;28;20024;-79
2021/08/01 11:00:56;;;;;;;34.17;23.92;;;19.70;89.20;;;;;;5074497;28;20043;-79
2021/08/01 11:03:23;;;;;;;38.45;24.02;;;19.50;90.10;;;;;;5073501;28;20120;-78
2021/08/01 11:05:49;;;;;;;55.40;23.33;;;19.40;90.30;;;;;;5056963;28;20024;-78
2021/08/01 11:08:14;;;;;;;37.78;23.38;;;19.20;91.30;;;;;;5064062;28;20120;-77
2021/08/01 11:10:43;;;;;;;35.88;21.45;;;19.00;91.60;;;;;;5053297;28;20028;-77
2021/08/01 11:13:24;;;;;;;32.83;20.45;;;18.90;92.20;;;;;;5054692;28;20565;-77
2021/08/01 11:15:50;;;;;;;32.58;19.65;;;18.70;93.20;;;;;;5065944;28;20053;-79
2021/08/01 11:18:31;;;;;;;25.52;15.15;;;18.50;94.30;;;;;;5053621;28;20036;-80
2021/08/01 11:21:03;;;;;;;27.33;15.10;;;18.40;94.60;;;;;;5065241;28;20021;-78
2021/08/01 11:23:44;;;;;;;26.52;14.95;;;18.40;95.00;;;;;;5052920;28;20094;-77
2021/08/01 11:26:11;;;;;;;25.08;14.13;;;18.40;95.10;;;;;;5052758;28;20108;-78
2021/08/01 11:28:39;;;;;;;21.13;11.23;;;18.40;95.50;;;;;;5053099;28;20032;-79
2021/08/01 11:31:18;;;;;;;13.80;9.20;;;18.50;95.80;;;;;;5057529;28;20032;-78
2021/08/01 11:33:55;;;;;;;17.48;10.43;;;18.60;95.80;;;;;;5054456;28;20032;-81
2021/08/01 11:36:25;;;;;;;20.02;12.43;;;18.70;96.10;;;;;;5036088;28;20036;-79
2021/08/01 11:38:56;;;;;;;19.35;10.98;;;18.90;96.20;;;;;;5065056;28;20099;-79
2021/08/01 11:41:27;;;;;;;14.15;8.70;;;19.10;96.40;;;;;;5053995;28;20033;-80
2021/08/01 11:44:04;;;;;;;11.32;7.18;;;19.30;96.40;;;;;;5052421;28;20021;-80
2021/08/01 11:46:57;;;;;;;7.97;5.72;;;19.50;96.40;;;;;;5052933;28;20027;-81
2021/08/01 11:49:32;;;;;;;7.45;4.80;;;19.70;96.10;;;;;;5054041;28;20016;-79
2021/08/01 11:51:59;;;;;;;10.48;5.85;;;19.80;95.80;;;;;;5053379;28;20115;-79
2021/08/01 11:54:32;;;;;;;11.50;7.47;;;19.90;95.50;;;;;;5053827;28;20116;-78
2021/08/01 11:57:03;;;;;;;15.73;10.40;;;19.90;95.00;;;;;;5052099;28;20530;-75
2021/08/01 11:59:30;;;;;;;24.58;14.07;;;20.00;95.10;;;;;;5068963;28;20068;-74
2021/08/01 12:01:56;;;;;;;25.15;15.82;;;19.90;94.70;;;;;;5056190;28;20017;-74
2021/08/01 12:04:23;;;;;;;26.13;16.63;;;19.90;94.70;;;;;;5050219;28;20028;-74
2021/08/01 12:06:54;;;;;;;24.70;15.88;;;19.80;94.50;;;;;;5053541;28;20404;-76
2021/08/01 12:09:37;;;;;;;23.63;14.65;;;19.90;94.80;;;;;;5051564;28;20051;-75
2021/08/01 12:12:05;;;;;;;17.23;11.47;;;19.80;93.90;;;;;;5052780;28;20078;-75
2021/08/01 12:14:40;;;;;;;16.25;9.32;;;20.00;94.30;;;;;;5051883;28;20116;-74
2021/08/01 12:17:09;;;;;;;11.77;8.02;;;20.40;94.10;;;;;;5035546;28;20045;-75
2021/08/01 12:19:39;;;;;;;11.48;7.00;;;20.60;93.20;;;;;;5053158;28;20025;-75
2021/08/01 12:22:08;;;;;;;8.98;6.32;;;20.70;92.80;;;;;;5052284;28;20032;-75
2021/08/01 12:24:47;;;;;;;9.23;5.68;;;20.70;92.00;;;;;;5053783;28;20472;-74
2021/08/01 12:27:18;;;;;;;13.00;7.30;;;20.60;91.70;;;;;;5053287;28;20029;-75
2021/08/01 12:29:53;;;;;;;8.05;4.78;;;20.60;91.20;;;;;;5052262;28;20036;-75
2021/08/01 12:32:25;;;;;;;7.43;4.75;;;20.60;91.50;;;;;;5052381;28;20451;-74
2021/08/01 12:35:00;;;;;;;7.68;4.53;;;20.60;91.50;;;;;;5051962;28;20032;-74